Cincinnati, Ohio
Traffic Map
Current Weather Conditions
Cincinnati, Ohio
Clear
Clear
16°
Feels Like: 16°
Wind Chill: 16° Ceiling: Unl
Heat Index: 16° Visibility: 10mi
Dew Point: 11° Wind: 9mph
Humidity: 70% Direction: 40° (NE)
Pressure: 29.44in Gusts: 0mph
Raw Report DataKLUK 222153Z 04008KT 10SM CLR 16/11 A2944 RMK AO2 SLP968 T01610106
Traffic Incident Summary
Active as of:
Severity:
Category:
InformationThere was an issue retrieving the traffic information for this location. Please try a different location or try again shortly.
Advertisements
Track Severe Weather on mobile